createdAt,value
2022-12-23T00:01:25.345Z,11.47
2022-12-23T00:03:52.816Z,11.48
2022-12-23T00:06:20.854Z,13.90
2022-12-23T00:08:47.730Z,9.07
2022-12-23T00:11:17.922Z,11.25
2022-12-23T00:14:02.997Z,13.10
2022-12-23T00:16:29.551Z,17.13
2022-12-23T00:18:56.192Z,15.77
2022-12-23T00:21:23.119Z,12.00
2022-12-23T00:23:51.264Z,15.23
2022-12-23T00:26:19.082Z,15.17
2022-12-23T00:28:45.863Z,13.88
2022-12-23T00:31:13.455Z,11.18
2022-12-23T00:33:42.925Z,13.90
2022-12-23T00:36:12.803Z,11.45
2022-12-23T00:38:57.861Z,9.17
2022-12-23T00:41:42.672Z,8.43
2022-12-23T00:44:09.284Z,11.10
2022-12-23T00:46:35.715Z,15.75
2022-12-23T00:49:20.903Z,12.30
2022-12-23T00:51:47.342Z,17.90
2022-12-23T00:54:13.797Z,15.25
2022-12-23T00:56:40.418Z,19.73
2022-12-23T00:59:07.136Z,15.88
2022-12-23T01:01:52.261Z,13.57
2022-12-23T01:04:38.109Z,12.27
2022-12-23T01:07:05.457Z,12.52
2022-12-23T01:09:32.631Z,9.93
2022-12-23T01:11:59.066Z,12.75
2022-12-23T01:14:26.124Z,12.73
2022-12-23T01:16:52.751Z,14.13
2022-12-23T01:19:19.230Z,9.45
2022-12-23T01:21:45.732Z,8.82
2022-12-23T01:24:12.322Z,9.35
2022-12-23T01:26:38.778Z,12.05
2022-12-23T01:29:05.291Z,11.53
2022-12-23T01:31:31.947Z,12.32
2022-12-23T01:33:58.375Z,13.35
2022-12-23T01:36:24.954Z,11.27
2022-12-23T01:38:52.394Z,14.77
2022-12-23T01:41:46.731Z,10.97
2022-12-23T01:44:52.090Z,13.27
2022-12-23T01:47:45.910Z,11.27
2022-12-23T01:50:31.166Z,15.43
2022-12-23T01:53:09.675Z,12.80
2022-12-23T01:55:41.473Z,8.17
2022-12-23T01:58:13.427Z,18.10
2022-12-23T02:01:00.341Z,13.82
2022-12-23T02:03:42.504Z,12.90
2022-12-23T02:06:48.057Z,11.18
2022-12-23T02:09:36.087Z,11.37
2022-12-23T02:12:21.526Z,10.48
2022-12-23T02:15:28.028Z,8.45
2022-12-23T02:18:22.170Z,9.05
2022-12-23T02:21:00.509Z,8.07
2022-12-23T02:23:32.811Z,15.33
2022-12-23T02:26:33.330Z,8.68
2022-12-23T02:29:14.135Z,8.57
2022-12-23T02:31:43.572Z,7.93
2022-12-23T02:34:20.861Z,9.60
2022-12-23T02:36:57.739Z,10.23
2022-12-23T02:39:38.174Z,7.53
2022-12-23T02:42:16.029Z,9.10
2022-12-23T02:45:00.202Z,7.07
2022-12-23T02:47:37.848Z,6.63
2022-12-23T02:50:11.582Z,5.57
2022-12-23T02:52:41.418Z,7.15
2022-12-23T02:55:16.114Z,6.75
2022-12-23T02:57:46.499Z,7.30
2022-12-23T03:00:15.083Z,7.13
2022-12-23T03:02:42.614Z,8.53
2022-12-23T03:05:29.385Z,9.27
2022-12-23T03:08:02.513Z,8.13
2022-12-23T03:10:36.996Z,9.48
2022-12-23T03:13:24.400Z,8.15
2022-12-23T03:17:04.823Z,6.50
2022-12-23T03:19:48.312Z,9.85
2022-12-23T03:22:23.508Z,10.40
2022-12-23T03:25:01.909Z,7.82
2022-12-23T03:27:39.863Z,12.10
2022-12-23T03:30:19.811Z,8.87
2022-12-23T03:32:56.626Z,11.35
2022-12-23T03:35:28.891Z,11.27
2022-12-23T03:37:57.369Z,8.25
2022-12-23T03:40:44.806Z,11.52
2022-12-23T03:43:24.924Z,10.40
2022-12-23T03:45:59.064Z,8.77
2022-12-23T03:48:36.890Z,10.02
2022-12-23T03:51:11.473Z,11.25
2022-12-23T03:53:46.879Z,6.78
2022-12-23T03:56:24.784Z,11.33
2022-12-23T03:58:54.687Z,11.38
2022-12-23T04:01:24.144Z,10.88
2022-12-23T04:04:14.872Z,6.47
2022-12-23T04:06:51.530Z,5.45
2022-12-23T04:09:22.352Z,10.30
2022-12-23T04:11:49.402Z,7.25
2022-12-23T04:14:20.565Z,8.43
2022-12-23T04:16:49.791Z,8.32
2022-12-23T04:19:16.365Z,7.88
2022-12-23T04:21:42.821Z,9.30
2022-12-23T04:24:09.328Z,7.85
2022-12-23T04:26:35.838Z,8.63
2022-12-23T04:29:02.286Z,9.10
2022-12-23T04:31:28.902Z,6.65
2022-12-23T04:33:55.468Z,6.30
2022-12-23T04:36:21.914Z,7.57
2022-12-23T04:38:48.464Z,8.77
2022-12-23T04:41:14.892Z,7.03
2022-12-23T04:43:41.362Z,5.85
2022-12-23T04:46:07.852Z,7.63
2022-12-23T04:48:35.556Z,7.30
2022-12-23T04:51:03.179Z,6.93
2022-12-23T04:53:29.714Z,4.72
2022-12-23T04:55:56.126Z,6.13
2022-12-23T04:58:24.132Z,5.37
2022-12-23T05:01:00.890Z,7.72
2022-12-23T05:03:27.502Z,8.00
2022-12-23T05:05:54.040Z,5.93
2022-12-23T05:08:20.457Z,6.13
2022-12-23T05:10:46.957Z,5.57
2022-12-23T05:13:13.525Z,9.00
2022-12-23T05:15:39.994Z,5.68
2022-12-23T05:18:06.399Z,5.05
2022-12-23T05:20:32.867Z,5.68
2022-12-23T05:22:59.307Z,6.40
2022-12-23T05:25:25.733Z,6.25
2022-12-23T05:27:52.179Z,9.55
2022-12-23T05:30:18.885Z,8.52
2022-12-23T05:32:45.400Z,6.75
2022-12-23T05:35:11.864Z,6.37
2022-12-23T05:37:38.267Z,9.30
2022-12-23T05:40:05.285Z,9.45
2022-12-23T05:42:31.742Z,7.97
2022-12-23T05:44:58.137Z,7.30
2022-12-23T05:47:24.573Z,9.00
2022-12-23T05:49:51.025Z,7.30
2022-12-23T05:52:17.672Z,5.45
2022-12-23T05:54:44.093Z,6.68
2022-12-23T05:57:10.623Z,5.78
2022-12-23T05:59:37.125Z,8.13
2022-12-23T06:02:03.699Z,5.90
2022-12-23T06:04:30.300Z,6.22
2022-12-23T06:06:56.878Z,6.15
2022-12-23T06:09:23.291Z,7.03
2022-12-23T06:11:49.703Z,8.13
2022-12-23T06:14:16.194Z,5.97
2022-12-23T06:16:42.826Z,5.60
2022-12-23T06:19:09.469Z,6.68
2022-12-23T06:21:35.857Z,5.00
2022-12-23T06:24:02.311Z,7.23
2022-12-23T06:26:28.902Z,6.60
2022-12-23T06:28:55.369Z,5.25
2022-12-23T06:31:21.932Z,5.80
2022-12-23T06:33:48.453Z,5.15
2022-12-23T06:36:15.006Z,6.50
2022-12-23T06:38:41.574Z,5.07
2022-12-23T06:41:08.061Z,4.57
2022-12-23T06:43:34.528Z,5.95
2022-12-23T06:46:01.034Z,10.55
2022-12-23T06:48:27.594Z,5.87
2022-12-23T06:50:54.103Z,9.18
2022-12-23T06:53:20.537Z,5.53
2022-12-23T06:55:47.008Z,7.30
2022-12-23T06:58:13.455Z,8.27
2022-12-23T07:00:39.889Z,8.87
2022-12-23T07:03:06.456Z,5.78
2022-12-23T07:05:37.436Z,7.88
2022-12-23T07:08:04.500Z,8.23
2022-12-23T07:10:30.938Z,12.35
2022-12-23T07:12:57.364Z,5.60
2022-12-23T07:15:23.855Z,5.78
2022-12-23T07:17:50.356Z,7.63
2022-12-23T07:20:16.946Z,19.98
2022-12-23T07:22:43.655Z,6.75
2022-12-23T07:25:10.227Z,5.13
2022-12-23T07:27:36.637Z,12.15
2022-12-23T07:30:03.541Z,10.50
2022-12-23T07:32:29.967Z,6.00
2022-12-23T07:34:56.366Z,9.02
2022-12-23T07:37:22.769Z,6.23
2022-12-23T07:39:49.758Z,8.13
2022-12-23T07:42:43.428Z,7.45
2022-12-23T07:45:02.933Z,8.70
2022-12-23T07:47:29.357Z,7.32
2022-12-23T07:49:55.828Z,8.33
2022-12-23T07:52:22.287Z,11.20
2022-12-23T07:54:48.803Z,17.20
2022-12-23T07:57:15.267Z,9.50
2022-12-23T07:59:41.765Z,7.93
2022-12-23T08:02:10.930Z,8.13
2022-12-23T08:04:42.543Z,9.65
2022-12-23T08:07:12.428Z,10.57
2022-12-23T08:09:38.891Z,8.02
2022-12-23T08:12:05.610Z,10.57
2022-12-23T08:14:32.098Z,11.83
2022-12-23T08:16:58.542Z,10.43
2022-12-23T08:19:25.022Z,10.35
2022-12-23T08:21:51.563Z,11.38
2022-12-23T08:24:18.332Z,15.73
2022-12-23T08:26:44.710Z,14.43
2022-12-23T08:29:11.087Z,13.23
2022-12-23T08:31:37.588Z,15.13
2022-12-23T08:34:04.112Z,13.85
2022-12-23T08:36:35.689Z,14.50
2022-12-23T08:39:05.330Z,13.80
2022-12-23T08:41:34.153Z,12.55
2022-12-23T08:44:00.682Z,17.60
2022-12-23T08:46:27.883Z,25.08
2022-12-23T08:48:56.174Z,16.42
2022-12-23T08:51:24.125Z,17.40
2022-12-23T08:53:56.188Z,16.10
2022-12-23T08:56:26.913Z,21.88
2022-12-23T08:58:54.881Z,18.92
2022-12-23T09:01:24.476Z,15.15
2022-12-23T09:03:52.221Z,15.80
2022-12-23T09:06:29.922Z,20.25
2022-12-23T09:08:57.357Z,24.15
2022-12-23T09:11:25.770Z,15.48
2022-12-23T09:13:52.490Z,19.05
2022-12-23T09:16:19.555Z,20.10
2022-12-23T09:18:45.989Z,21.85
2022-12-23T09:21:15.716Z,20.65
2022-12-23T09:23:45.051Z,21.05
2022-12-23T09:26:18.670Z,21.85
2022-12-23T09:28:45.171Z,24.93
2022-12-23T09:31:13.286Z,19.40
2022-12-23T09:33:40.075Z,19.83
2022-12-23T09:36:07.308Z,21.92
2022-12-23T09:38:34.355Z,21.88
2022-12-23T09:41:16.162Z,20.67
2022-12-23T09:43:52.156Z,41.63
2022-12-23T09:46:23.920Z,30.25
2022-12-23T09:49:05.840Z,32.25
2022-12-23T09:51:33.418Z,43.42
2022-12-23T09:54:09.700Z,46.60
2022-12-23T09:57:14.661Z,48.20
2022-12-23T10:00:01.811Z,45.20
2022-12-23T10:02:46.104Z,44.38
2022-12-23T10:05:28.315Z,43.00
2022-12-23T10:07:57.854Z,39.30
2022-12-23T10:10:39.400Z,29.35
2022-12-23T10:13:11.350Z,20.35
2022-12-23T10:15:48.378Z,26.42
2022-12-23T10:18:21.965Z,21.30
2022-12-23T10:20:53.758Z,27.43
2022-12-23T10:23:31.245Z,22.08
2022-12-23T10:25:57.949Z,21.55
2022-12-23T10:28:24.883Z,21.48
2022-12-23T10:34:03.931Z,29.60
2022-12-23T10:36:42.965Z,25.33
2022-12-23T10:39:43.418Z,19.60
2022-12-23T10:42:30.766Z,23.80
2022-12-23T10:45:20.476Z,18.23
2022-12-23T10:47:51.725Z,19.63
2022-12-23T10:50:34.109Z,18.02
2022-12-23T10:53:04.584Z,16.48
2022-12-23T10:55:38.572Z,19.80
2022-12-23T10:58:14.674Z,21.15
2022-12-23T11:00:46.065Z,17.83
2022-12-23T11:03:29.665Z,19.67
2022-12-23T11:05:58.166Z,21.20
2022-12-23T11:08:27.263Z,19.13
2022-12-23T11:10:55.149Z,19.70
2022-12-23T11:13:44.543Z,22.93
2022-12-23T11:16:21.958Z,20.10
2022-12-23T11:18:53.829Z,24.58
2022-12-23T11:21:20.604Z,27.15
2022-12-23T11:23:47.064Z,19.98
2022-12-23T11:26:19.603Z,18.30
2022-12-23T11:29:09.943Z,22.38
2022-12-23T11:31:36.941Z,23.10
2022-12-23T11:34:15.802Z,23.23
2022-12-23T11:36:42.812Z,23.83
2022-12-23T11:39:11.928Z,25.33
2022-12-23T11:41:50.687Z,28.85
2022-12-23T11:44:26.405Z,31.75
2022-12-23T11:46:53.643Z,37.13
2022-12-23T11:49:26.020Z,38.72
2022-12-23T11:52:13.261Z,34.37
2022-12-23T11:54:39.994Z,45.03
2022-12-23T11:57:16.311Z,35.95
2022-12-23T11:59:51.212Z,41.40
2022-12-23T12:02:22.449Z,39.40
2022-12-23T12:05:01.227Z,43.10
2022-12-23T12:07:28.786Z,39.28
2022-12-23T12:09:58.917Z,43.70
2022-12-23T12:12:26.665Z,33.83
2022-12-23T12:14:56.433Z,35.88
2022-12-23T12:17:41.574Z,34.73
2022-12-23T12:20:29.923Z,38.40
2022-12-23T12:23:21.057Z,36.63
2022-12-23T12:25:52.941Z,35.60
2022-12-23T12:28:32.669Z,31.17
2022-12-23T12:31:06.230Z,31.87
2022-12-23T12:33:52.171Z,31.70
2022-12-23T12:36:37.856Z,28.08
2022-12-23T12:39:04.599Z,30.63
2022-12-23T12:41:39.956Z,36.30
2022-12-23T12:44:15.711Z,30.10
2022-12-23T12:46:52.389Z,28.40
2022-12-23T12:49:42.087Z,25.80
2022-12-23T12:52:16.777Z,22.77
2022-12-23T12:54:46.603Z,28.27
2022-12-23T12:57:16.599Z,21.37
2022-12-23T12:59:45.243Z,23.42
2022-12-23T13:02:49.319Z,21.50
2022-12-23T13:05:37.863Z,21.92
2022-12-23T13:08:07.688Z,23.42
2022-12-23T13:10:45.095Z,18.03
2022-12-23T13:13:29.602Z,24.83
2022-12-23T13:16:11.377Z,22.88
2022-12-23T13:18:57.309Z,23.80
2022-12-23T13:21:45.903Z,23.58
2022-12-23T13:24:21.617Z,24.97
2022-12-23T13:27:00.616Z,20.60
2022-12-23T13:29:44.980Z,25.30
2022-12-23T13:32:26.912Z,27.42
2022-12-23T13:34:53.297Z,26.23
2022-12-23T13:37:25.767Z,28.50
2022-12-23T13:40:03.427Z,22.17
2022-12-23T13:42:39.332Z,23.42
2022-12-23T13:45:13.198Z,22.35
2022-12-23T13:48:04.694Z,24.75
2022-12-23T13:51:04.345Z,25.53
2022-12-23T13:53:53.435Z,23.58
2022-12-23T13:56:19.823Z,18.55
2022-12-23T13:58:49.755Z,22.02
2022-12-23T14:01:16.082Z,16.77
2022-12-23T14:03:43.195Z,17.07
2022-12-23T14:06:45.060Z,18.65
2022-12-23T14:09:16.354Z,20.55
2022-12-23T14:11:44.505Z,18.30
2022-12-23T14:14:21.834Z,18.02
2022-12-23T14:17:16.261Z,19.57
2022-12-23T14:20:11.890Z,18.58
2022-12-23T14:23:05.829Z,16.42
2022-12-23T14:25:55.869Z,18.67
2022-12-23T14:28:31.286Z,15.25
2022-12-23T14:30:58.134Z,14.67
2022-12-23T14:33:30.303Z,22.15
2022-12-23T14:36:15.735Z,17.58
2022-12-23T14:38:42.472Z,16.98
2022-12-23T14:41:37.827Z,16.83
2022-12-23T14:44:19.526Z,15.23
2022-12-23T14:46:45.965Z,15.38
2022-12-23T14:49:40.607Z,15.90
2022-12-23T14:52:48.331Z,16.50
2022-12-23T14:55:32.298Z,19.73
2022-12-23T14:58:17.677Z,14.93
2022-12-23T15:01:00.121Z,12.82
2022-12-23T15:03:31.435Z,16.63
2022-12-23T15:06:02.198Z,15.90
2022-12-23T15:08:37.133Z,13.02
2022-12-23T15:11:04.464Z,13.17
2022-12-23T15:13:32.758Z,14.10
2022-12-23T15:16:01.622Z,14.68
2022-12-23T15:18:29.323Z,14.00
2022-12-23T15:21:11.339Z,11.93
2022-12-23T15:23:37.960Z,12.73
2022-12-23T15:26:04.558Z,17.35
2022-12-23T15:28:41.936Z,13.65
2022-12-23T15:31:31.143Z,13.90
2022-12-23T15:34:03.390Z,12.82
2022-12-23T15:36:36.141Z,14.63
2022-12-23T15:39:10.404Z,11.48
2022-12-23T15:41:44.634Z,14.73
2022-12-23T15:44:20.772Z,14.10
2022-12-23T15:46:47.518Z,15.05
2022-12-23T15:49:14.160Z,12.60
2022-12-23T15:54:36.847Z,12.80
2022-12-23T15:57:04.648Z,12.30
2022-12-23T15:59:36.201Z,13.40
2022-12-23T16:03:00.565Z,16.77
2022-12-23T16:05:33.197Z,15.68
2022-12-23T16:08:11.370Z,15.82
2022-12-23T16:10:38.603Z,16.15
2022-12-23T16:13:05.087Z,15.23
2022-12-23T16:15:33.546Z,13.07
2022-12-23T16:18:26.244Z,16.13
2022-12-23T16:21:00.404Z,12.82
2022-12-23T16:23:32.722Z,14.82
2022-12-23T16:26:01.616Z,16.63
2022-12-23T16:28:35.898Z,16.27
2022-12-23T16:31:06.693Z,14.38
2022-12-23T16:34:00.955Z,12.35
2022-12-23T16:36:27.383Z,11.10
2022-12-23T16:38:58.742Z,11.63
2022-12-23T16:41:25.421Z,10.90
2022-12-23T16:43:52.967Z,15.30
2022-12-23T16:46:21.553Z,12.80
2022-12-23T16:48:51.064Z,13.25
2022-12-23T16:51:20.267Z,10.10
2022-12-23T16:53:50.548Z,16.80
2022-12-23T16:56:21.118Z,14.95
2022-12-23T16:58:47.938Z,13.20
2022-12-23T17:01:27.409Z,13.73
2022-12-23T17:03:55.836Z,13.40
2022-12-23T17:06:23.231Z,11.53
2022-12-23T17:08:50.465Z,13.23
2022-12-23T17:11:21.719Z,14.45
2022-12-23T17:13:48.339Z,14.35
2022-12-23T17:16:19.861Z,13.88
2022-12-23T17:18:47.730Z,13.53
2022-12-23T17:21:36.757Z,13.45
2022-12-23T17:24:09.785Z,14.35
2022-12-23T17:26:36.568Z,17.63
2022-12-23T17:29:04.937Z,15.23
2022-12-23T17:31:32.717Z,18.63
2022-12-23T17:33:59.525Z,14.02
2022-12-23T17:36:26.075Z,15.90
2022-12-23T17:38:52.554Z,16.33
2022-12-23T17:41:28.723Z,13.70
2022-12-23T17:43:55.580Z,12.80
2022-12-23T17:46:22.130Z,15.85
2022-12-23T17:48:48.826Z,13.77
2022-12-23T17:51:20.472Z,13.40
2022-12-23T17:53:51.567Z,15.38
2022-12-23T17:56:22.442Z,16.93
2022-12-23T17:58:50.237Z,14.40
2022-12-23T18:01:19.684Z,15.77
2022-12-23T18:03:46.444Z,18.17
2022-12-23T18:06:15.115Z,15.25
2022-12-23T18:08:41.632Z,14.10
2022-12-23T18:11:11.331Z,18.83
2022-12-23T18:13:38.472Z,18.52
2022-12-23T18:16:04.964Z,16.45
2022-12-23T18:18:41.958Z,13.90
2022-12-23T18:21:19.129Z,16.47
2022-12-23T18:23:45.623Z,17.90
2022-12-23T18:26:15.459Z,15.70
2022-12-23T18:28:43.543Z,20.67
2022-12-23T18:31:22.869Z,17.60
2022-12-23T18:33:49.666Z,19.90
2022-12-23T18:36:25.141Z,25.02
2022-12-23T18:38:52.566Z,31.67
2022-12-23T18:41:20.863Z,21.70
2022-12-23T18:43:47.465Z,35.08
2022-12-23T18:46:13.962Z,36.17
2022-12-23T18:48:40.492Z,37.92
2022-12-23T18:51:07.076Z,40.50
2022-12-23T18:53:33.654Z,38.60
2022-12-23T18:56:00.232Z,42.80
2022-12-23T18:58:26.752Z,23.00
2022-12-23T19:00:53.323Z,29.52
2022-12-23T19:03:25.198Z,25.25
2022-12-23T19:05:53.309Z,40.85
2022-12-23T19:08:26.211Z,41.15
2022-12-23T19:10:54.752Z,31.83
2022-12-23T19:13:21.194Z,30.05
2022-12-23T19:15:47.621Z,41.25
2022-12-23T19:18:16.470Z,33.83
2022-12-23T19:20:44.481Z,30.13
2022-12-23T19:23:11.480Z,33.30
2022-12-23T19:25:41.831Z,32.45
2022-12-23T19:28:08.523Z,37.97
2022-12-23T19:30:35.105Z,26.52
2022-12-23T19:33:01.534Z,27.90
2022-12-23T19:35:28.234Z,34.13
2022-12-23T19:37:54.731Z,34.60
2022-12-23T19:40:21.275Z,37.88
2022-12-23T19:42:47.807Z,38.50
2022-12-23T19:45:14.389Z,30.58
2022-12-23T19:47:40.876Z,25.57
2022-12-23T19:50:08.327Z,30.70
2022-12-23T19:52:35.163Z,31.65
2022-12-23T19:55:01.659Z,29.13
2022-12-23T19:57:28.146Z,33.15
2022-12-23T19:59:54.675Z,43.33
2022-12-23T20:02:21.111Z,28.17
2022-12-23T20:04:47.662Z,36.55
2022-12-23T20:07:14.063Z,32.67
2022-12-23T20:09:40.502Z,26.08
2022-12-23T20:12:08.191Z,34.70
2022-12-23T20:14:34.807Z,32.33
2022-12-23T20:17:01.825Z,32.65
2022-12-23T20:19:28.441Z,31.45
2022-12-23T20:21:55.026Z,35.25
2022-12-23T20:24:21.482Z,40.00
2022-12-23T20:26:48.011Z,29.75
2022-12-23T20:29:14.719Z,33.63
2022-12-23T20:31:41.535Z,25.30
2022-12-23T20:34:13.598Z,30.15
2022-12-23T20:36:40.263Z,25.83
2022-12-23T20:39:06.775Z,25.70
2022-12-23T20:41:33.347Z,27.40
2022-12-23T20:44:33.047Z,26.90
2022-12-23T20:46:46.712Z,20.08
2022-12-23T20:49:13.379Z,27.33
2022-12-23T20:51:39.837Z,24.88
2022-12-23T20:54:06.211Z,23.02
2022-12-23T20:56:32.590Z,18.08
2022-12-23T20:59:00.221Z,23.02
2022-12-23T21:01:33.544Z,15.37
2022-12-23T21:04:02.043Z,12.73
2022-12-23T21:06:30.248Z,20.02
2022-12-23T21:08:59.718Z,23.50
2022-12-23T21:11:31.080Z,18.92
2022-12-23T21:14:06.143Z,14.23
2022-12-23T21:16:35.567Z,13.80
2022-12-23T21:19:02.354Z,23.70
2022-12-23T21:21:31.086Z,11.88
2022-12-23T21:24:01.061Z,16.05
2022-12-23T21:26:29.791Z,17.07
2022-12-23T21:29:00.908Z,13.85
2022-12-23T21:31:29.726Z,20.27
2022-12-23T21:33:56.677Z,13.95
2022-12-23T21:36:26.040Z,17.90
2022-12-23T21:38:53.233Z,8.70
2022-12-23T21:41:25.883Z,15.32
2022-12-23T21:43:52.345Z,10.68
2022-12-23T21:46:21.959Z,14.48
2022-12-23T21:48:49.653Z,17.73
2022-12-23T21:51:17.672Z,15.03
2022-12-23T21:53:46.070Z,15.20
2022-12-23T21:56:15.463Z,15.95
2022-12-23T21:58:45.321Z,15.27
2022-12-23T22:01:17.762Z,15.32
2022-12-23T22:03:45.830Z,16.63
2022-12-23T22:06:18.735Z,14.10
2022-12-23T22:08:45.547Z,9.35
2022-12-23T22:11:17.689Z,13.63
2022-12-23T22:13:47.072Z,11.43
2022-12-23T22:16:16.470Z,23.37
2022-12-23T22:18:43.763Z,13.25
2022-12-23T22:21:13.309Z,12.93
2022-12-23T22:23:39.859Z,13.70
2022-12-23T22:26:07.699Z,18.75
2022-12-23T22:28:36.280Z,15.93
2022-12-23T22:31:05.442Z,12.85
2022-12-23T22:33:32.692Z,19.63
2022-12-23T22:36:00.074Z,18.77
2022-12-23T22:38:26.766Z,17.08
2022-12-23T22:40:54.261Z,10.10
2022-12-23T22:43:21.034Z,19.00
2022-12-23T22:45:47.542Z,8.95
2022-12-23T22:48:15.445Z,12.90
2022-12-23T22:50:41.967Z,15.73
2022-12-23T22:53:10.735Z,15.97
2022-12-23T22:55:37.151Z,23.27
2022-12-23T22:58:03.557Z,16.05
2022-12-23T23:00:30.153Z,16.48
2022-12-23T23:02:56.584Z,8.30
2022-12-23T23:05:23.138Z,15.03
2022-12-23T23:07:51.983Z,20.08
2022-12-23T23:10:18.856Z,20.23
2022-12-23T23:12:45.356Z,14.30
2022-12-23T23:15:11.869Z,13.93
2022-12-23T23:17:38.405Z,11.83
2022-12-23T23:20:05.237Z,17.17
2022-12-23T23:22:31.643Z,16.00
2022-12-23T23:24:58.055Z,16.73
2022-12-23T23:27:24.520Z,16.88
2022-12-23T23:29:51.005Z,20.97
2022-12-23T23:32:17.841Z,13.40
2022-12-23T23:34:46.727Z,17.23
2022-12-23T23:37:14.146Z,18.35
2022-12-23T23:39:40.658Z,17.70
2022-12-23T23:42:07.266Z,16.23
2022-12-23T23:44:34.135Z,17.30
2022-12-23T23:47:00.620Z,16.17
2022-12-23T23:49:27.046Z,13.73
2022-12-23T23:51:53.547Z,16.60
2022-12-23T23:54:19.997Z,18.47
2022-12-23T23:56:46.399Z,17.98
2022-12-23T23:59:12.957Z,21.95
